Time;durP1;ratioP1;P1;durP2;ratioP2;P2;SDS_P1;SDS_P2;PMS_P1;PMS_P2;Temp;Humidity;BMP_temperature;BMP_pressure;BME280_temperature;BME280_humidity;BME280_pressure;Samples;Min_cycle;Max_cycle;Signal;HPM_P1;HPM_P2
2024/01/22 00:01:23;;;;;;;28.00;10.20;;;;;;;-1.89;72.44;100298.02;103888;1284;60561;-32
2024/01/22 00:03:49;;;;;;;21.40;9.10;;;;;;;-1.89;72.49;100294.55;103999;1285;60547;-31
2024/01/22 00:06:14;;;;;;;18.30;8.60;;;;;;;-1.87;72.45;100295.51;104088;1280;60488;-30
2024/01/22 00:08:40;;;;;;;26.50;9.90;;;;;;;-1.84;72.42;100297.08;103810;1280;60460;-30
2024/01/22 00:11:05;;;;;;;30.40;9.90;;;;;;;-1.85;72.68;100297.27;103916;1280;60533;-30
2024/01/22 00:13:31;;;;;;;17.80;8.00;;;;;;;-1.89;72.98;100289.29;104000;1280;60443;-30
2024/01/22 00:15:58;;;;;;;19.30;8.30;;;;;;;-1.91;72.90;100279.36;104011;1280;60620;-30
2024/01/22 00:18:24;;;;;;;18.20;8.70;;;;;;;-1.86;72.70;100272.06;103944;1280;60593;-32
2024/01/22 00:20:50;;;;;;;21.60;8.00;;;;;;;-1.83;72.72;100264.70;103895;1280;60561;-32
2024/01/22 00:23:15;;;;;;;18.40;8.40;;;;;;;-1.86;72.87;100268.77;103824;1280;60439;-31
2024/01/22 00:25:41;;;;;;;20.10;8.20;;;;;;;-1.82;73.01;100264.81;104049;1280;61087;-33
2024/01/22 00:28:06;;;;;;;16.80;8.40;;;;;;;-1.77;72.64;100259.57;103982;1280;60482;-32
2024/01/22 00:30:32;;;;;;;16.60;8.20;;;;;;;-1.74;72.52;100255.67;103765;1285;60555;-32
2024/01/22 00:32:59;;;;;;;22.00;9.70;;;;;;;-1.69;72.32;100257.11;103917;1285;60568;-30
2024/01/22 00:35:24;;;;;;;19.40;8.20;;;;;;;-1.68;72.29;100257.80;103938;1284;60572;-32
2024/01/22 00:37:50;;;;;;;18.50;8.30;;;;;;;-1.68;72.12;100259.86;103973;1285;60567;-33
2024/01/22 00:40:15;;;;;;;21.10;8.40;;;;;;;-1.67;72.31;100260.69;103922;1284;60551;-30
2024/01/22 00:42:43;;;;;;;14.40;7.80;;;;;;;-1.65;72.03;100259.02;103892;1285;60593;-32
2024/01/22 00:45:09;;;;;;;18.10;8.30;;;;;;;-1.64;72.22;100264.71;103917;1280;60485;-32
2024/01/22 00:47:34;;;;;;;18.30;8.50;;;;;;;-1.63;72.48;100262.91;103899;1280;60562;-30
2024/01/22 00:50:00;;;;;;;17.00;8.00;;;;;;;-1.65;72.41;100263.55;103941;1280;60565;-31
2024/01/22 00:52:25;;;;;;;18.00;7.10;;;;;;;-1.63;72.30;100258.31;103892;1280;60555;-33
2024/01/22 00:54:51;;;;;;;16.50;8.10;;;;;;;-1.63;72.18;100250.98;103867;1280;60506;-32
2024/01/22 00:57:19;;;;;;;16.20;8.30;;;;;;;-1.67;72.50;100256.98;104037;1283;60578;-31
2024/01/22 00:59:44;;;;;;;20.30;8.20;;;;;;;-1.67;72.41;100251.72;103958;1280;60482;-32
2024/01/22 01:02:10;;;;;;;20.10;7.90;;;;;;;-1.63;72.36;100250.10;103754;1280;60569;-30
2024/01/22 01:04:35;;;;;;;17.20;8.30;;;;;;;-1.58;72.02;100244.17;103685;1280;60446;-34
2024/01/22 01:07:01;;;;;;;18.50;7.90;;;;;;;-1.58;71.97;100240.11;103669;1280;60577;-31
2024/01/22 01:09:27;;;;;;;15.60;7.20;;;;;;;-1.59;72.25;100234.02;103857;1280;60517;-33
2024/01/22 01:11:52;;;;;;;15.50;7.70;;;;;;;-1.58;72.00;100234.30;103922;1284;60551;-31
2024/01/22 01:14:18;;;;;;;17.20;8.50;;;;;;;-1.62;72.01;100228.39;104047;1285;60564;-33
2024/01/22 01:16:44;;;;;;;17.60;7.20;;;;;;;-1.58;71.85;100225.73;103934;1280;74315;-31
2024/01/22 01:19:09;;;;;;;19.20;7.60;;;;;;;-1.63;72.08;100225.64;103874;1280;60482;-31
2024/01/22 01:21:38;;;;;;;16.80;7.80;;;;;;;-1.65;72.13;100225.96;103853;1280;61038;-31
2024/01/22 01:24:04;;;;;;;13.90;7.00;;;;;;;-1.64;72.00;100221.02;103899;1285;60565;-33
2024/01/22 01:26:29;;;;;;;12.30;6.80;;;;;;;-1.57;71.45;100214.80;103988;1280;60571;-32
2024/01/22 01:28:55;;;;;;;17.00;7.20;;;;;;;-1.57;71.42;100209.63;103990;1285;60456;-32
2024/01/22 01:31:20;;;;;;;16.00;7.90;;;;;;;-1.53;71.45;100209.61;103849;1285;60478;-30
2024/01/22 01:33:46;;;;;;;16.40;7.00;;;;;;;-1.51;71.23;100209.79;103902;1285;60623;-34
2024/01/22 01:36:11;;;;;;;11.10;6.10;;;;;;;-1.55;71.55;100214.27;103775;1285;60513;-33
2024/01/22 01:38:37;;;;;;;15.60;6.80;;;;;;;-1.54;71.16;100217.03;103889;1284;60561;-29
2024/01/22 01:41:04;;;;;;;15.50;6.90;;;;;;;-1.52;71.01;100219.15;103870;1280;60427;-30
2024/01/22 01:43:30;;;;;;;13.30;6.50;;;;;;;-1.47;70.89;100220.27;104023;1280;73432;-31
2024/01/22 01:45:56;;;;;;;11.80;6.50;;;;;;;-1.48;70.78;100218.90;103955;1280;60558;-30
2024/01/22 01:48:21;;;;;;;15.30;6.80;;;;;;;-1.44;70.74;100226.36;103857;1280;60631;-32
2024/01/22 01:50:47;;;;;;;13.40;7.30;;;;;;;-1.44;70.54;100226.00;103909;1280;60936;-34
2024/01/22 01:53:14;;;;;;;19.00;7.20;;;;;;;-1.42;70.44;100231.84;103991;1280;60568;-32
2024/01/22 02:34:56;;;;;;;15.20;9.00;;;;;;;-1.81;76.21;100171.52;103467;1285;613520;-31
2024/01/22 02:37:21;;;;;;;16.80;8.60;;;;;;;-1.71;75.26;100165.80;103705;1283;206835;-31
2024/01/22 02:39:47;;;;;;;17.70;8.40;;;;;;;-1.70;75.03;100159.41;103869;1285;59356;-32
2024/01/22 02:42:13;;;;;;;15.20;7.80;;;;;;;-1.69;74.79;100148.48;103850;1282;59285;-30
2024/01/22 02:44:41;;;;;;;16.70;7.70;;;;;;;-1.67;74.55;100150.59;103792;1285;59706;-30
2024/01/22 02:47:07;;;;;;;19.50;8.90;;;;;;;-1.64;74.34;100144.65;103485;1283;59287;-33
2024/01/22 02:49:34;;;;;;;17.70;7.20;;;;;;;-1.66;74.38;100132.42;103795;1285;59369;-36
2024/01/22 02:52:00;;;;;;;15.30;7.30;;;;;;;-1.61;74.01;100132.27;103790;1285;59340;-31
2024/01/22 02:54:25;;;;;;;12.70;7.10;;;;;;;-1.62;73.99;100129.19;103656;1283;59478;-32
2024/01/22 02:56:51;;;;;;;15.10;7.00;;;;;;;-1.62;73.53;100120.41;103875;1283;59339;-30
2024/01/22 02:59:18;;;;;;;13.80;7.80;;;;;;;-1.56;73.38;100120.25;103767;1283;59847;-31
2024/01/22 03:01:44;;;;;;;15.00;7.60;;;;;;;-1.60;73.34;100116.23;103787;1283;59762;-30
2024/01/22 03:04:10;;;;;;;16.00;7.40;;;;;;;-1.60;73.03;100113.96;103868;1285;59969;-32
2024/01/22 03:06:38;;;;;;;17.70;8.60;;;;;;;-1.57;73.00;100116.61;103616;1283;59749;-32
2024/01/22 03:09:04;;;;;;;12.50;7.10;;;;;;;-1.55;72.55;100105.05;103906;1282;59771;-30
2024/01/22 03:11:30;;;;;;;17.50;7.30;;;;;;;-1.54;72.33;100101.61;103854;1283;59737;-32
2024/01/22 03:13:56;;;;;;;15.80;7.60;;;;;;;-1.53;72.20;100100.33;103872;1282;59713;-32
2024/01/22 03:16:21;;;;;;;16.20;7.90;;;;;;;-1.54;72.16;100103.20;103785;1283;59794;-31
2024/01/22 03:18:47;;;;;;;15.80;7.10;;;;;;;-1.54;71.98;100101.12;103721;1285;59690;-32
2024/01/22 03:21:13;;;;;;;17.70;8.10;;;;;;;-1.53;71.97;100099.63;103811;1286;59930;-30
2024/01/22 03:23:40;;;;;;;15.40;6.90;;;;;;;-1.58;71.73;100096.27;103916;1285;59714;-33
2024/01/22 03:26:05;;;;;;;13.80;7.20;;;;;;;-1.58;71.89;100096.13;103805;1285;73253;-32
2024/01/22 03:28:31;;;;;;;14.30;7.50;;;;;;;-1.57;71.71;100096.56;103823;1285;59776;-33
2024/01/22 03:30:57;;;;;;;12.60;7.20;;;;;;;-1.55;71.50;100088.89;103892;1285;59710;-32
2024/01/22 03:33:23;;;;;;;16.00;8.40;;;;;;;-1.53;71.46;100080.33;103758;1282;59691;-33
2024/01/22 03:35:48;;;;;;;11.80;6.90;;;;;;;-1.54;71.18;100073.36;103585;1283;59754;-30
2024/01/22 03:38:14;;;;;;;15.80;7.80;;;;;;;-1.55;71.10;100072.73;103710;1282;60034;-30
2024/01/22 03:40:40;;;;;;;13.80;7.30;;;;;;;-1.60;71.51;100069.52;103718;1282;59794;-32
2024/01/22 03:43:05;;;;;;;17.00;7.80;;;;;;;-1.57;70.98;100063.72;103756;1285;59646;-33
2024/01/22 03:45:31;;;;;;;15.10;7.20;;;;;;;-1.51;70.75;100067.02;103727;1285;59771;-31
2024/01/22 03:47:56;;;;;;;15.80;7.40;;;;;;;-1.48;70.48;100065.40;103664;1285;59674;-32
2024/01/22 03:50:22;;;;;;;13.40;7.30;;;;;;;-1.50;70.10;100065.36;103815;1285;59602;-32
2024/01/22 03:52:48;;;;;;;12.80;6.90;;;;;;;-1.48;70.10;100067.30;103845;1285;59772;-30
2024/01/22 03:55:13;;;;;;;18.80;7.40;;;;;;;-1.48;70.21;100067.69;103724;1282;59768;-32
2024/01/22 03:57:39;;;;;;;12.90;7.10;;;;;;;-1.45;69.96;100063.10;103674;1285;59659;-30
2024/01/22 04:00:05;;;;;;;12.10;7.20;;;;;;;-1.49;70.02;100063.02;103602;1283;59770;-32
2024/01/22 04:02:34;;;;;;;;;;;;;;;-1.49;69.57;100053.69;103737;1283;61895;-30
2024/01/22 04:05:00;;;;;;;18.60;7.90;;;;;;;-1.41;69.40;100042.45;103855;1285;73464;-32
2024/01/22 04:07:26;;;;;;;11.50;6.60;;;;;;;-1.42;69.33;100035.85;103698;1285;59736;-32
2024/01/22 04:09:52;;;;;;;13.20;7.00;;;;;;;-1.39;69.04;100029.48;103637;1283;59902;-30
2024/01/22 04:12:17;;;;;;;13.60;6.60;;;;;;;-1.36;68.67;100023.36;103826;1280;59762;-32
2024/01/22 04:14:43;;;;;;;13.30;7.00;;;;;;;-1.36;68.32;100014.89;103787;1282;59745;-30
2024/01/22 04:17:08;;;;;;;10.80;6.70;;;;;;;-1.39;68.56;100008.23;103815;1282;59775;-31
2024/01/22 04:19:34;;;;;;;15.20;6.60;;;;;;;-1.33;68.46;99999.94;103722;1282;59657;-32
2024/01/22 04:22:00;;;;;;;14.00;6.40;;;;;;;-1.35;68.31;99993.25;103698;1282;59795;-32
2024/01/22 04:24:26;;;;;;;13.40;6.40;;;;;;;-1.25;67.66;99981.27;103706;1285;59663;-32
2024/01/22 04:26:51;;;;;;;15.30;6.40;;;;;;;-1.28;67.19;99979.52;103661;1285;59689;-31
2024/01/22 04:29:17;;;;;;;10.60;6.30;;;;;;;-1.29;67.35;99973.13;103746;1285;59796;-32
2024/01/22 04:31:43;;;;;;;12.20;6.50;;;;;;;-1.24;66.87;99974.50;103662;1285;61354;-30
2024/01/22 04:34:08;;;;;;;13.30;6.90;;;;;;;-1.16;65.80;99976.25;103601;1283;59754;-32
2024/01/22 04:36:34;;;;;;;13.70;6.30;;;;;;;-1.16;65.66;99977.67;103736;1285;59753;-31
2024/01/22 04:38:59;;;;;;;12.60;6.10;;;;;;;-1.14;65.82;99970.89;103798;1285;59793;-30
2024/01/22 04:41:25;;;;;;;14.00;6.50;;;;;;;-1.11;64.87;99966.95;103707;1283;60207;-32
2024/01/22 04:43:51;;;;;;;12.20;6.00;;;;;;;-1.12;64.83;99966.47;103644;1282;59858;-30
2024/01/22 04:46:17;;;;;;;13.90;6.80;;;;;;;-1.08;64.31;99962.48;103644;1285;59631;-30
2024/01/22 04:48:42;;;;;;;10.20;5.40;;;;;;;-1.09;64.13;99950.30;103726;1283;59771;-31
2024/01/22 04:51:08;;;;;;;12.30;6.10;;;;;;;-1.12;64.19;99951.57;103777;1285;59752;-32
2024/01/22 04:53:34;;;;;;;13.10;6.30;;;;;;;-1.07;63.17;99944.50;103794;1285;59765;-31
2024/01/22 04:56:00;;;;;;;11.00;5.60;;;;;;;-0.99;63.15;99939.91;103765;1285;59768;-30
2024/01/22 04:58:26;;;;;;;11.80;5.70;;;;;;;-0.97;63.01;99933.93;103746;1283;59666;-30
2024/01/22 05:00:51;;;;;;;12.80;5.50;;;;;;;-1.01;63.00;99921.79;103633;1285;59778;-33
2024/01/22 05:03:17;;;;;;;11.30;5.60;;;;;;;-1.03;62.75;99919.79;103703;1285;59756;-31
2024/01/22 05:05:43;;;;;;;13.30;5.90;;;;;;;-1.04;62.77;99909.49;103830;1285;59756;-31
2024/01/22 05:08:08;;;;;;;9.60;5.30;;;;;;;-1.06;62.70;99918.56;103645;1285;59736;-33
2024/01/22 05:10:34;;;;;;;12.70;5.70;;;;;;;-1.08;62.67;99916.30;103689;1285;59790;-33
2024/01/22 05:13:00;;;;;;;12.40;6.00;;;;;;;-1.08;62.90;99917.19;103666;1282;59761;-30
2024/01/22 05:15:25;;;;;;;13.70;6.20;;;;;;;-1.09;62.64;99910.70;103735;1285;59787;-33
2024/01/22 05:17:51;;;;;;;13.70;6.70;;;;;;;-1.06;62.83;99912.23;103801;1286;59847;-31
2024/01/22 05:20:17;;;;;;;13.70;6.20;;;;;;;-1.06;62.80;99917.35;103755;1283;59577;-31
2024/01/22 05:22:44;;;;;;;13.30;5.80;;;;;;;-1.01;62.25;99912.06;103779;1282;59697;-30
2024/01/22 05:25:10;;;;;;;15.90;5.80;;;;;;;-1.08;62.45;99898.69;103695;1283;69517;-32
2024/01/22 05:27:36;;;;;;;13.40;5.70;;;;;;;-1.07;62.31;99899.36;103688;1285;59771;-30
2024/01/22 05:30:01;;;;;;;12.40;6.10;;;;;;;-1.08;62.11;99893.22;103637;1282;59848;-32
2024/01/22 05:32:28;;;;;;;10.40;6.10;;;;;;;-1.08;62.25;99887.47;103634;1284;59790;-32
2024/01/22 05:34:54;;;;;;;11.80;5.60;;;;;;;-1.13;62.18;99885.73;103609;1283;59858;-32
2024/01/22 05:37:19;;;;;;;11.50;5.70;;;;;;;-1.14;62.50;99877.56;103741;1280;59739;-33
2024/01/22 05:39:45;;;;;;;11.10;5.60;;;;;;;-1.14;61.76;99875.95;103834;1283;59765;-32
2024/01/22 05:42:11;;;;;;;13.90;5.60;;;;;;;-1.13;61.93;99869.57;103665;1285;59799;-31
2024/01/22 05:44:37;;;;;;;13.00;6.40;;;;;;;-1.07;61.29;99861.89;103641;1286;59778;-31
2024/01/22 05:47:02;;;;;;;10.50;5.30;;;;;;;-1.07;61.10;99853.09;103779;1282;61770;-36
2024/01/22 05:49:28;;;;;;;9.70;5.10;;;;;;;-1.06;61.17;99840.06;103746;1282;59769;-30
2024/01/22 05:51:54;;;;;;;9.80;5.70;;;;;;;-1.03;60.98;99842.81;103652;1285;60145;-35
2024/01/22 05:54:19;;;;;;;10.50;5.00;;;;;;;-1.08;61.38;99847.73;103713;1286;59697;-34
2024/01/22 05:56:45;;;;;;;13.30;5.80;;;;;;;-1.05;60.84;99842.65;103726;1285;60228;-32
2024/01/22 05:59:10;;;;;;;11.50;5.50;;;;;;;-1.00;60.34;99832.92;103654;1285;59871;-30
2024/01/22 06:01:36;;;;;;;8.80;5.40;;;;;;;-1.00;60.52;99828.68;103724;1283;59806;-32
2024/01/22 06:04:04;;;;;;;10.30;5.20;;;;;;;-0.99;60.54;99819.13;103723;1283;69817;-33
2024/01/22 06:06:30;;;;;;;12.50;5.90;;;;;;;-0.89;60.18;99815.25;103789;1285;71477;-32
2024/01/22 06:08:56;;;;;;;8.40;4.70;;;;;;;-0.85;59.76;99811.11;103720;1285;59669;-30
2024/01/22 06:11:22;;;;;;;13.30;5.10;;;;;;;-0.81;59.58;99802.20;103773;1285;59647;-31
2024/01/22 06:13:48;;;;;;;11.90;5.20;;;;;;;-0.82;59.53;99791.51;103685;1283;59777;-30
2024/01/22 06:16:14;;;;;;;11.00;5.80;;;;;;;-0.80;59.28;99788.02;103758;1286;59741;-33
2024/01/22 06:18:42;;;;;;;11.60;5.90;;;;;;;-0.71;58.96;99791.41;103768;1281;59704;-39
2024/01/22 06:21:08;;;;;;;10.80;6.00;;;;;;;-0.71;59.32;99789.68;103723;1282;59682;-31
2024/01/22 06:23:34;;;;;;;14.60;6.30;;;;;;;-0.70;58.84;99780.58;103689;1285;59651;-31
2024/01/22 06:26:00;;;;;;;9.90;5.30;;;;;;;-0.60;58.86;99785.68;103663;1281;59791;-31
2024/01/22 06:28:27;;;;;;;11.10;5.60;;;;;;;-0.59;58.82;99781.53;103785;1281;60077;-30
2024/01/22 06:30:53;;;;;;;14.00;6.20;;;;;;;-0.53;58.38;99774.88;103693;1285;73236;-30
2024/01/22 06:33:19;;;;;;;12.80;5.90;;;;;;;-0.51;58.00;99772.63;103838;1286;59718;-30
2024/01/22 06:35:46;;;;;;;12.00;6.00;;;;;;;-0.48;57.67;99768.89;103776;1283;73087;-30
2024/01/22 06:38:12;;;;;;;11.60;6.20;;;;;;;-0.43;57.70;99765.23;103733;1285;60710;-32
2024/01/22 06:40:38;;;;;;;;;;;;;;;-0.42;57.45;99752.48;103705;1285;60568;-33
2024/01/22 06:43:04;;;;;;;11.20;4.80;;;;;;;-0.43;57.79;99747.43;103713;1289;60520;-32
2024/01/22 06:45:29;;;;;;;11.20;5.40;;;;;;;-0.40;57.69;99745.48;103655;1286;60574;-31
2024/01/22 06:47:55;;;;;;;12.50;5.80;;;;;;;-0.38;57.84;99740.41;103856;1285;60573;-31
2024/01/22 06:50:22;;;;;;;12.10;5.20;;;;;;;-0.34;57.69;99735.70;103678;1286;60569;-33
2024/01/22 06:52:48;;;;;;;11.60;6.00;;;;;;;-0.33;57.85;99734.69;103688;1284;60572;-31
2024/01/22 06:55:14;;;;;;;9.80;5.80;;;;;;;-0.30;57.58;99734.27;103402;1283;60575;-33
2024/01/22 06:57:39;;;;;;;14.50;6.40;;;;;;;-0.24;57.06;99739.80;103715;1283;60568;-33
2024/01/22 07:00:09;;;;;;;17.90;7.60;;;;;;;-0.16;56.68;99747.98;103630;1286;60654;-31
2024/01/22 07:02:35;;;;;;;18.00;7.40;;;;;;;-0.07;56.39;99746.73;103628;1286;71476;-30
2024/01/22 07:05:01;;;;;;;;;;;;;;;0.02;55.36;99750.98;103663;1285;60571;-30
2024/01/22 07:07:26;;;;;;;14.90;7.10;;;;;;;0.11;55.14;99748.89;103708;1284;60577;-35
2024/01/22 07:09:52;;;;;;;11.40;6.00;;;;;;;0.08;56.03;99749.23;103635;1283;60510;-29
2024/01/22 07:12:19;;;;;;;18.10;6.70;;;;;;;0.11;54.96;99757.69;103806;1283;60475;-33
2024/01/22 07:14:46;;;;;;;12.90;7.00;;;;;;;0.15;55.39;99770.73;103746;1285;60569;-32
2024/01/22 07:17:15;;;;;;;12.20;6.20;;;;;;;0.13;55.47;99775.95;103713;1285;60577;-33
2024/01/22 07:19:41;;;;;;;10.10;5.70;;;;;;;0.16;55.30;99769.77;103764;1283;60465;-33
2024/01/22 07:22:07;;;;;;;;;;;;;;;0.17;55.30;99774.96;103710;1286;60591;-31
2024/01/22 07:24:32;;;;;;;7.50;4.60;;;;;;;0.17;55.40;99776.38;103689;1285;60574;-32
2024/01/22 07:26:58;;;;;;;14.00;5.60;;;;;;;0.20;54.55;99766.79;103841;1285;60559;-32
2024/01/22 07:29:24;;;;;;;14.30;5.80;;;;;;;0.32;54.52;99768.30;103679;1282;60508;-32
2024/01/22 07:31:50;;;;;;;12.30;6.00;;;;;;;0.35;54.63;99771.39;103670;1285;60546;-30
2024/01/22 07:34:16;;;;;;;22.10;6.20;;;;;;;0.38;54.29;99766.95;103737;1285;60548;-31
2024/01/22 07:36:42;;;;;;;16.40;5.90;;;;;;;0.38;54.90;99766.41;103800;1284;60575;-31
2024/01/22 07:39:07;;;;;;;12.30;5.70;;;;;;;0.43;54.56;99763.73;103789;1286;60571;-31
2024/01/22 07:41:36;;;;;;;12.20;5.50;;;;;;;0.49;53.98;99759.89;103755;1283;68098;-34
2024/01/22 07:44:03;;;;;;;10.20;5.30;;;;;;;0.56;54.18;99762.54;103592;1281;72442;-33
2024/01/22 07:46:29;;;;;;;17.50;7.00;;;;;;;0.68;53.73;99764.02;103732;1283;60552;-31
2024/01/22 07:48:55;;;;;;;13.50;5.90;;;;;;;0.86;53.50;99755.86;103680;1285;60597;-32
2024/01/22 07:51:21;;;;;;;;;;;;;;;1.03;53.01;99754.30;103778;1285;60508;-31
2024/01/22 07:53:46;;;;;;;11.50;5.70;;;;;;;1.19;52.38;99749.25;103778;1282;60559;-31
2024/01/22 07:56:12;;;;;;;13.80;5.30;;;;;;;1.39;52.50;99753.36;103828;1285;60553;-33
2024/01/22 07:58:39;;;;;;;10.50;5.50;;;;;;;1.61;52.02;99755.77;103692;1286;60574;-29
2024/01/22 08:01:06;;;;;;;15.60;5.60;;;;;;;1.72;52.15;99750.21;103725;1285;60457;-29
2024/01/22 08:03:31;;;;;;;10.30;5.60;;;;;;;1.77;51.13;99741.87;103761;1284;60655;-33
2024/01/22 08:05:58;;;;;;;11.90;6.00;;;;;;;1.81;50.27;99740.61;103706;1283;60456;-35
2024/01/22 08:08:25;;;;;;;12.00;6.10;;;;;;;1.89;50.75;99746.98;103841;1285;60475;-31
2024/01/22 08:10:51;;;;;;;13.30;6.00;;;;;;;1.90;50.55;99745.70;103722;1283;60562;-31
2024/01/22 08:13:17;;;;;;;11.30;5.70;;;;;;;1.93;49.62;99738.05;103714;1285;60559;-30
2024/01/22 08:15:43;;;;;;;;;;;;;;;1.96;49.53;99737.39;103797;1283;60565;-31
2024/01/22 08:18:10;;;;;;;10.20;5.70;;;;;;;1.89;49.38;99738.53;103729;1285;60571;-30
2024/01/22 08:20:35;;;;;;;11.30;5.30;;;;;;;1.91;49.69;99740.82;103731;1285;60530;-30
2024/01/22 08:23:01;;;;;;;16.70;6.30;;;;;;;1.96;49.66;99734.70;103694;1285;60562;-32
2024/01/22 08:25:29;;;;;;;9.20;5.30;;;;;;;2.04;49.93;99721.71;103658;1286;60556;-30
2024/01/22 08:27:55;;;;;;;11.80;6.20;;;;;;;2.13;49.40;99721.59;103843;1282;60581;-31
2024/01/22 08:30:21;;;;;;;12.10;6.30;;;;;;;2.20;49.43;99713.40;103715;1282;60574;-30
2024/01/22 08:32:48;;;;;;;14.20;5.90;;;;;;;2.37;48.96;99702.14;103737;1282;61210;-31
2024/01/22 08:35:16;;;;;;;13.00;6.30;;;;;;;2.44;48.29;99692.16;103792;1282;74240;-36
2024/01/22 08:37:45;;;;;;;14.90;6.20;;;;;;;2.54;47.94;99702.45;103782;1284;68752;-30
2024/01/22 08:40:11;;;;;;;15.60;6.70;;;;;;;2.69;47.50;99702.13;103726;1281;71521;-32
2024/01/22 08:42:36;;;;;;;15.30;6.30;;;;;;;2.67;47.11;99693.31;103683;1285;60590;-31
2024/01/22 08:45:03;;;;;;;15.90;8.00;;;;;;;2.64;47.24;99691.07;103770;1285;60571;-31
2024/01/22 08:47:28;;;;;;;;;;;;;;;2.75;47.07;99693.10;103741;1281;60561;-31
2024/01/22 08:49:54;;;;;;;11.20;5.40;;;;;;;2.76;47.51;99688.57;103720;1283;60597;-32
2024/01/22 08:52:19;;;;;;;23.20;8.40;;;;;;;2.96;46.68;99688.89;103728;1283;60644;-31
2024/01/22 08:54:45;;;;;;;15.10;6.30;;;;;;;3.00;47.51;99688.53;103726;1282;60544;-33
2024/01/22 08:57:11;;;;;;;13.60;6.30;;;;;;;3.11;46.41;99674.21;103711;1285;60504;-33
2024/01/22 08:59:36;;;;;;;13.40;5.40;;;;;;;3.10;46.62;99671.85;103752;1283;60439;-33
2024/01/22 09:02:03;;;;;;;13.70;6.30;;;;;;;3.24;46.60;99660.63;103809;1283;60601;-32
2024/01/22 09:04:39;;;;;;;14.40;6.30;;;;;;;3.24;45.73;99648.79;103755;1283;60507;-32
2024/01/22 09:07:05;;;;;;;;;;;;;;;3.23;46.08;99645.98;103668;1283;72782;-32
2024/01/22 09:09:30;;;;;;;26.90;14.60;;;;;;;3.36;45.49;99645.02;103720;1285;60898;-33
2024/01/22 09:11:56;;;;;;;21.20;7.40;;;;;;;3.35;45.64;99638.88;103643;1285;60485;-33
2024/01/22 09:14:22;;;;;;;20.70;7.40;;;;;;;3.35;45.14;99628.45;103653;1280;60464;-31
2024/01/22 09:16:48;;;;;;;;;;;;;;;3.36;45.66;99630.69;103632;1286;60940;-31
2024/01/22 09:19:13;;;;;;;21.90;7.60;;;;;;;3.31;45.59;99632.01;103782;1285;60552;-31
2024/01/22 09:21:40;;;;;;;16.20;6.80;;;;;;;3.36;45.30;99626.58;103657;1281;60497;-31
2024/01/22 09:24:06;;;;;;;20.60;6.90;;;;;;;3.31;45.34;99627.06;103747;1285;60584;-31
2024/01/22 09:26:32;;;;;;;17.90;7.60;;;;;;;3.24;45.80;99633.23;103711;1285;60570;-31
2024/01/22 09:28:58;;;;;;;61.20;22.20;;;;;;;3.37;45.56;99637.98;103760;1285;60664;-34
2024/01/22 09:31:24;;;;;;;25.80;10.80;;;;;;;3.43;45.62;99631.45;103793;1282;60575;-30
2024/01/22 09:33:53;;;;;;;27.90;7.60;;;;;;;3.58;45.32;99627.16;103706;1281;72357;-30
2024/01/22 09:36:19;;;;;;;54.00;10.90;;;;;;;3.59;45.05;99621.21;103690;1285;60635;-30
2024/01/22 09:38:45;;;;;;;16.10;6.20;;;;;;;3.63;45.03;99605.59;103675;1285;60599;-33
2024/01/22 09:41:11;;;;;;;13.30;6.10;;;;;;;3.67;45.43;99602.55;103838;1282;60565;-32
2024/01/22 09:43:36;;;;;;;;;;;;;;;3.72;44.90;99593.61;103721;1281;60475;-30
2024/01/22 09:46:02;;;;;;;18.00;6.30;;;;;;;3.71;44.36;99584.77;103699;1283;60571;-32
2024/01/22 09:48:29;;;;;;;;;;;;;;;3.73;45.07;99584.45;103680;1284;60658;-34
2024/01/22 09:50:55;;;;;;;20.00;7.20;;;;;;;3.77;44.11;99579.83;103712;1285;60548;-32
2024/01/22 09:53:21;;;;;;;16.60;8.40;;;;;;;3.69;44.65;99573.35;103739;1281;60517;-30
2024/01/22 09:55:47;;;;;;;13.80;4.70;;;;;;;3.72;44.02;99575.52;103797;1282;60845;-32
2024/01/22 09:58:16;;;;;;;12.50;5.30;;;;;;;3.72;43.95;99564.50;103768;1283;60604;-33
2024/01/22 10:00:42;;;;;;;16.50;5.90;;;;;;;3.65;44.33;99557.80;103784;1282;60446;-31
2024/01/22 10:03:08;;;;;;;22.80;6.80;;;;;;;3.61;44.89;99531.04;103659;1285;60569;-33
2024/01/22 10:05:34;;;;;;;21.60;7.10;;;;;;;3.76;44.71;99541.68;103666;1285;60565;-33
2024/01/22 10:08:00;;;;;;;13.10;6.30;;;;;;;3.80;45.16;99535.42;103680;1283;60540;-33
2024/01/22 10:10:26;;;;;;;25.10;9.70;;;;;;;3.88;44.53;99510.91;103586;1283;60517;-33
2024/01/22 10:13:04;;;;;;;;;;;;;;;3.88;44.43;99499.79;103714;1282;60607;-32
2024/01/22 10:15:31;;;;;;;14.10;5.30;;;;;;;3.87;43.37;99489.96;103743;1282;69315;-33
2024/01/22 10:18:10;;;;;;;13.40;6.10;;;;;;;3.92;43.60;99507.26;103237;1286;72233;-32
2024/01/22 10:20:37;;;;;;;14.40;5.70;;;;;;;3.94;43.69;99516.88;103753;1283;60498;-33
2024/01/22 10:23:02;;;;;;;11.40;5.90;;;;;;;3.91;44.03;99506.17;103738;1285;60505;-32
2024/01/22 10:25:29;;;;;;;13.20;5.50;;;;;;;3.95;43.70;99497.05;103823;1285;60494;-31
2024/01/22 10:28:07;;;;;;;9.80;4.90;;;;;;;4.04;43.78;99495.74;103817;1283;74286;-32
2024/01/22 10:30:33;;;;;;;9.10;5.00;;;;;;;4.04;43.65;99519.23;103703;1283;68371;-33
2024/01/22 10:33:14;;;;;;;9.10;4.70;;;;;;;4.03;43.97;99550.24;103659;1283;60571;-33
2024/01/22 10:35:40;;;;;;;9.80;4.70;;;;;;;4.05;43.65;99572.52;103567;1287;60558;-31
2024/01/22 10:38:08;;;;;;;7.20;4.10;;;;;;;4.04;43.63;99575.02;103758;1285;60445;-33
2024/01/22 10:40:34;;;;;;;7.90;4.10;;;;;;;4.14;43.41;99564.53;103760;1281;60488;-30
2024/01/22 10:43:06;;;;;;;;;;;;;;;4.10;43.04;99555.16;103759;1283;60491;-32
2024/01/22 10:45:31;;;;;;;15.40;7.20;;;;;;;4.21;42.69;99544.84;103788;1282;69858;-31
2024/01/22 10:47:57;;;;;;;13.80;6.10;;;;;;;4.31;42.75;99530.91;103730;1285;60572;-32
2024/01/22 10:50:22;;;;;;;25.40;10.80;;;;;;;4.30;42.52;99529.66;103709;1281;60565;-31
2024/01/22 10:52:48;;;;;;;42.30;14.40;;;;;;;4.36;42.59;99526.13;103744;1285;60566;-31
2024/01/22 10:55:14;;;;;;;8.40;3.60;;;;;;;4.39;42.22;99522.90;103817;1282;60584;-32
2024/01/22 10:57:41;;;;;;;12.30;5.10;;;;;;;4.45;41.83;99524.88;103616;1282;60549;-30
2024/01/22 11:00:08;;;;;;;10.70;4.50;;;;;;;4.47;41.28;99535.20;103784;1282;60566;-31
2024/01/22 11:02:34;;;;;;;9.90;4.90;;;;;;;4.52;41.65;99532.56;103686;1285;60530;-33
2024/01/22 11:05:05;;;;;;;9.30;4.70;;;;;;;4.55;41.75;99516.40;103681;1282;60451;-32
2024/01/22 11:07:30;;;;;;;9.90;5.30;;;;;;;4.49;42.01;99511.24;103731;1285;60557;-34
2024/01/22 11:09:57;;;;;;;12.60;5.50;;;;;;;4.54;41.76;99507.31;103755;1285;60552;-32
2024/01/22 11:12:23;;;;;;;9.30;5.60;;;;;;;4.59;41.50;99489.60;103655;1286;61108;-33
2024/01/22 11:14:48;;;;;;;14.40;6.30;;;;;;;4.57;40.94;99481.42;103777;1285;60658;-33
2024/01/22 11:17:15;;;;;;;24.10;9.70;;;;;;;4.54;41.11;99469.17;103674;1284;60563;-33
2024/01/22 11:19:44;;;;;;;25.30;11.30;;;;;;;4.60;41.46;99479.89;103733;1282;60488;-32
2024/01/22 11:22:22;;;;;;;15.20;8.10;;;;;;;4.68;41.33;99476.13;103821;1282;60495;-31
2024/01/22 11:25:00;;;;;;;43.00;19.20;;;;;;;4.72;41.38;99458.65;103634;1282;60406;-31
2024/01/22 11:27:38;;;;;;;17.10;8.30;;;;;;;4.77;41.45;99443.35;103661;1282;74111;-33
2024/01/22 11:30:26;;;;;;;33.00;15.30;;;;;;;4.83;40.09;99431.23;103804;1282;68135;-33
2024/01/22 11:32:51;;;;;;;35.30;13.20;;;;;;;4.86;39.93;99439.81;103698;1283;72836;-31
2024/01/22 11:35:36;;;;;;;10.80;4.90;;;;;;;4.83;40.21;99479.02;103776;1285;61156;-34
2024/01/22 11:38:03;;;;;;;7.10;4.30;;;;;;;4.82;39.18;99487.09;103768;1282;60479;-32
2024/01/22 11:40:54;;;;;;;12.90;6.00;;;;;;;4.77;39.68;99484.23;103619;1283;60553;-32
2024/01/22 11:43:21;;;;;;;29.30;11.00;;;;;;;4.80;40.37;99469.77;103752;1280;74360;-31
2024/01/22 11:45:50;;;;;;;8.10;4.70;;;;;;;4.80;39.42;99466.07;103812;1283;68102;-31
2024/01/22 11:48:20;;;;;;;14.30;6.00;;;;;;;4.82;39.99;99456.05;103692;1283;72460;-31
2024/01/22 11:50:58;;;;;;;17.00;7.70;;;;;;;4.83;39.17;99448.17;107650;1281;58091;-34
2024/01/22 11:56:03;;;;;;;18.00;5.60;;;;;;;4.77;40.94;99432.84;102727;1293;599398;-33
2024/01/22 11:58:30;;;;;;;13.00;5.10;;;;;;;4.72;40.67;99414.76;102839;1292;59273;-33
2024/01/22 12:00:55;;;;;;;11.80;6.00;;;;;;;4.66;40.01;99407.52;102809;1292;59379;-32